Time;durP1;ratioP1;P1;durP2;ratioP2;P2;SDS_P1;SDS_P2;PMS_P1;PMS_P2;Temp;Humidity;BMP_temperature;BMP_pressure;BME280_temperature;BME280_humidity;BME280_pressure;Samples;Min_cycle;Max_cycle;Signal;HPM_P1;HPM_P2
2023/03/13 00:01:31;;;;;;;24.08;6.32;;;8.60;99.90;;;;;;4992464;28;20096;-84
2023/03/13 00:03:57;;;;;;;29.08;5.85;;;8.50;99.90;;;;;;4991011;28;20686;-85
2023/03/13 00:06:25;;;;;;;18.35;5.47;;;8.50;99.90;;;;;;4988098;28;20046;-84
2023/03/13 00:08:51;;;;;;;23.67;5.75;;;8.50;99.90;;;;;;4993471;28;20049;-86
2023/03/13 00:11:17;;;;;;;26.50;6.45;;;8.50;99.90;;;;;;4976354;28;20085;-85
2023/03/13 00:13:43;;;;;;;20.50;5.25;;;8.50;99.90;;;;;;4963478;28;20042;-85
2023/03/13 00:16:11;;;;;;;22.75;5.60;;;8.40;99.90;;;;;;4973215;28;20065;-85
2023/03/13 00:18:37;;;;;;;24.90;6.05;;;8.40;99.90;;;;;;4990106;28;20407;-85
2023/03/13 00:21:08;;;;;;;20.88;5.00;;;8.40;99.90;;;;;;4989009;28;20038;-84
2023/03/13 00:23:35;;;;;;;31.83;6.80;;;8.40;99.90;;;;;;4973347;28;20072;-84
2023/03/13 00:26:03;;;;;;;22.52;6.35;;;8.30;99.90;;;;;;5006116;28;20110;-84
2023/03/13 00:28:32;;;;;;;24.80;6.30;;;8.30;99.90;;;;;;4992295;28;20642;-84
2023/03/13 00:31:01;;;;;;;30.38;6.90;;;8.30;99.90;;;;;;4992320;28;20423;-84
2023/03/13 00:33:27;;;;;;;26.58;5.43;;;8.30;99.90;;;;;;4990207;28;20097;-84
2023/03/13 00:35:57;;;;;;;24.92;6.38;;;8.30;99.90;;;;;;4944483;28;20042;-84
2023/03/13 00:38:23;;;;;;;26.23;5.95;;;8.30;99.90;;;;;;4987350;28;20563;-84
2023/03/13 00:40:48;;;;;;;23.33;5.25;;;8.30;99.90;;;;;;4973076;28;20130;-85
2023/03/13 00:43:14;;;;;;;19.50;5.38;;;8.30;99.90;;;;;;4942281;28;20546;-84
2023/03/13 00:45:40;;;;;;;23.27;6.18;;;8.30;99.90;;;;;;4978283;28;20033;-85
2023/03/13 00:48:05;;;;;;;18.23;5.60;;;8.20;99.90;;;;;;4964731;28;20053;-84
2023/03/13 00:50:31;;;;;;;24.95;6.28;;;8.20;99.90;;;;;;4957300;28;20086;-84
2023/03/13 00:52:57;;;;;;;30.23;6.95;;;8.20;99.90;;;;;;4971123;28;20373;-85
2023/03/13 00:55:22;;;;;;;20.45;5.82;;;8.20;99.90;;;;;;4979274;28;20450;-85
2023/03/13 00:57:48;;;;;;;21.80;4.65;;;8.20;99.90;;;;;;4944927;28;20511;-85
2023/03/13 01:00:15;;;;;;;26.48;5.22;;;8.10;99.90;;;;;;4943162;28;20042;-85
2023/03/13 01:02:42;;;;;;;23.13;5.65;;;8.10;99.90;;;;;;4988755;28;20045;-85
2023/03/13 01:05:08;;;;;;;29.08;6.03;;;8.10;99.90;;;;;;4972059;28;20563;-85
2023/03/13 01:07:34;;;;;;;27.70;6.00;;;8.10;99.90;;;;;;4942319;28;20038;-85
2023/03/13 01:09:59;;;;;;;24.90;5.95;;;8.10;99.90;;;;;;4976312;28;20037;-85
2023/03/13 01:12:25;;;;;;;32.55;6.68;;;8.10;99.90;;;;;;4942647;28;20191;-85
2023/03/13 01:14:51;;;;;;;26.80;5.93;;;8.10;99.90;;;;;;4988867;28;20039;-85
2023/03/13 01:17:16;;;;;;;20.70;5.40;;;8.10;99.90;;;;;;4975215;28;20545;-85
2023/03/13 01:19:42;;;;;;;18.45;5.38;;;8.00;99.90;;;;;;4958456;28;20502;-84
2023/03/13 01:22:10;;;;;;;23.10;6.00;;;8.10;99.90;;;;;;4966680;28;20037;-84
2023/03/13 01:24:35;;;;;;;20.13;5.32;;;8.00;99.90;;;;;;4987439;28;20038;-85
2023/03/13 01:27:01;;;;;;;18.95;5.13;;;8.10;99.90;;;;;;4973378;28;20038;-84
2023/03/13 01:29:27;;;;;;;30.92;5.60;;;8.00;99.90;;;;;;4989899;28;20298;-84
2023/03/13 01:31:52;;;;;;;25.45;6.35;;;8.00;99.90;;;;;;4973630;28;20132;-85
2023/03/13 01:34:18;;;;;;;26.45;5.60;;;8.00;99.90;;;;;;4989054;28;20376;-84
2023/03/13 01:36:45;;;;;;;28.23;6.28;;;8.00;99.90;;;;;;4956583;28;20041;-84
2023/03/13 01:39:11;;;;;;;20.35;4.90;;;8.00;99.90;;;;;;4988099;28;20045;-84
2023/03/13 01:41:37;;;;;;;26.92;6.28;;;8.00;99.90;;;;;;4954570;28;20038;-84
2023/03/13 01:44:03;;;;;;;26.27;6.88;;;8.00;99.90;;;;;;4991265;28;20096;-84
2023/03/13 01:46:29;;;;;;;24.77;6.40;;;8.00;99.90;;;;;;4973175;28;20439;-84
2023/03/13 01:49:06;;;;;;;19.90;5.80;;;8.00;99.90;;;;;;4990659;28;20141;-85
2023/03/13 01:51:31;;;;;;;25.08;6.35;;;8.00;99.90;;;;;;4987531;28;20038;-84
2023/03/13 01:54:10;;;;;;;29.23;6.10;;;8.10;99.90;;;;;;4990047;28;20849;-84
2023/03/13 01:56:44;;;;;;;21.08;5.93;;;8.00;99.90;;;;;;4975829;28;20038;-83
2023/03/13 01:59:14;;;;;;;27.08;7.00;;;8.10;99.90;;;;;;4987456;28;20045;-84
2023/03/13 02:01:42;;;;;;;23.15;6.28;;;8.10;99.90;;;;;;4969925;28;20042;-84
2023/03/13 02:04:08;;;;;;;33.72;6.80;;;8.10;99.90;;;;;;4989303;28;20054;-84
2023/03/13 02:06:37;;;;;;;19.88;5.88;;;8.10;99.90;;;;;;4975049;28;20050;-84
2023/03/13 02:09:06;;;;;;;24.40;6.07;;;8.20;99.90;;;;;;4975227;28;20037;-84
2023/03/13 02:12:08;;;;;;;21.75;5.55;;;8.20;99.90;;;;;;4987158;28;20503;-83
2023/03/13 02:14:37;;;;;;;27.63;5.88;;;8.20;99.90;;;;;;4986521;28;20064;-84
2023/03/13 02:17:04;;;;;;;21.65;6.00;;;8.30;99.90;;;;;;4984517;28;20125;-84
2023/03/13 02:19:35;;;;;;;22.77;6.22;;;8.20;99.90;;;;;;4989752;28;20039;-84
2023/03/13 02:22:34;;;;;;;25.30;6.28;;;8.20;99.90;;;;;;4982258;28;20041;-83
2023/03/13 02:25:24;;;;;;;22.00;6.07;;;8.20;99.90;;;;;;4970626;28;20038;-84
2023/03/13 02:28:20;;;;;;;21.50;6.45;;;8.20;99.90;;;;;;4988579;28;20042;-84
2023/03/13 02:30:48;;;;;;;23.90;6.65;;;8.30;99.90;;;;;;4989628;28;20624;-84
2023/03/13 02:33:15;;;;;;;24.35;6.47;;;8.20;99.90;;;;;;4960423;28;20061;-84
2023/03/13 02:35:43;;;;;;;23.35;6.60;;;8.20;99.90;;;;;;4981526;28;20042;-84
2023/03/13 02:38:12;;;;;;;14.57;5.85;;;8.20;99.90;;;;;;5007136;28;20535;-85
2023/03/13 02:40:41;;;;;;;21.73;5.95;;;8.20;99.90;;;;;;4995740;28;20030;-85
2023/03/13 02:43:15;;;;;;;20.02;6.03;;;8.20;99.90;;;;;;4976009;28;20423;-85
2023/03/13 02:45:41;;;;;;;24.08;7.20;;;8.20;99.90;;;;;;4995086;28;20458;-85
2023/03/13 02:48:07;;;;;;;20.42;6.72;;;8.20;99.90;;;;;;4964776;28;20134;-86
2023/03/13 02:50:35;;;;;;;16.45;6.05;;;8.20;99.90;;;;;;4944204;28;20097;-86
2023/03/13 02:53:06;;;;;;;12.75;4.80;;;8.30;99.90;;;;;;4977988;28;20035;-86
2023/03/13 02:55:40;;;;;;;18.20;5.82;;;8.20;99.90;;;;;;4990404;28;20101;-86
2023/03/13 02:58:06;;;;;;;17.50;5.50;;;8.30;99.90;;;;;;4979063;28;20403;-86
2023/03/13 03:00:32;;;;;;;17.73;5.15;;;8.30;99.90;;;;;;4972810;28;20069;-86
2023/03/13 03:02:58;;;;;;;11.95;4.85;;;8.30;99.90;;;;;;4946780;28;20062;-87
2023/03/13 03:05:23;;;;;;;17.50;5.68;;;8.30;99.90;;;;;;4975567;28;20034;-87
2023/03/13 03:07:50;;;;;;;15.70;5.65;;;8.30;99.90;;;;;;4959232;28;20034;-87
2023/03/13 03:10:16;;;;;;;17.90;4.63;;;8.40;99.90;;;;;;4944214;28;20038;-87
2023/03/13 03:12:42;;;;;;;16.27;4.95;;;8.40;99.90;;;;;;4991358;28;20037;-87
2023/03/13 03:15:08;;;;;;;9.68;4.32;;;8.40;99.90;;;;;;4972092;28;20042;-87
2023/03/13 03:17:34;;;;;;;10.40;4.43;;;8.40;99.90;;;;;;4960687;28;20431;-86
2023/03/13 03:19:59;;;;;;;14.13;5.00;;;8.40;99.90;;;;;;4967893;28;20077;-86
2023/03/13 03:22:25;;;;;;;11.27;4.57;;;8.50;99.90;;;;;;4972564;28;20077;-87
2023/03/13 03:24:51;;;;;;;9.88;4.30;;;8.50;99.90;;;;;;5013954;28;20038;-87
2023/03/13 03:27:16;;;;;;;13.38;4.55;;;8.50;99.90;;;;;;4959950;28;20034;-87
2023/03/13 03:29:42;;;;;;;13.02;4.00;;;8.50;99.90;;;;;;4976258;28;20084;-86
2023/03/13 03:32:08;;;;;;;15.98;4.78;;;8.60;99.90;;;;;;5006730;28;20116;-86
2023/03/13 03:34:33;;;;;;;8.93;4.28;;;8.60;99.90;;;;;;4974281;28;20195;-86
2023/03/13 03:36:59;;;;;;;11.73;4.47;;;8.60;99.90;;;;;;4964309;28;20038;-85
2023/03/13 03:39:25;;;;;;;13.25;4.53;;;8.70;99.90;;;;;;4975051;28;21382;-85
2023/03/13 03:41:50;;;;;;;9.02;4.70;;;8.70;99.90;;;;;;4972004;28;20069;-85
2023/03/13 03:44:16;;;;;;;10.00;4.10;;;8.70;99.90;;;;;;4964925;28;20056;-84
2023/03/13 03:46:42;;;;;;;12.27;4.75;;;8.80;99.90;;;;;;4991764;28;20096;-85
2023/03/13 03:49:07;;;;;;;16.40;4.65;;;8.80;99.90;;;;;;4976057;28;20117;-85
2023/03/13 03:51:33;;;;;;;11.27;5.03;;;8.80;99.90;;;;;;4982644;28;20046;-85
2023/03/13 03:53:59;;;;;;;9.30;4.75;;;8.90;99.90;;;;;;4975808;28;20037;-86
2023/03/13 03:56:24;;;;;;;12.15;4.43;;;8.90;99.90;;;;;;4960465;28;20054;-85
2023/03/13 03:58:50;;;;;;;10.15;4.15;;;8.90;99.90;;;;;;4976946;28;20038;-84
2023/03/13 04:01:16;;;;;;;10.77;5.00;;;9.00;99.90;;;;;;4960596;28;20089;-85
2023/03/13 04:03:42;;;;;;;11.20;4.65;;;9.00;99.90;;;;;;4945869;28;20029;-85
2023/03/13 04:06:08;;;;;;;10.57;5.00;;;9.00;99.90;;;;;;4960186;28;20026;-85
2023/03/13 04:08:34;;;;;;;8.95;4.80;;;9.10;99.90;;;;;;4992223;28;20112;-85
2023/03/13 04:11:01;;;;;;;11.85;4.80;;;9.10;99.90;;;;;;4974206;28;20050;-85
2023/03/13 04:13:27;;;;;;;8.05;4.63;;;9.20;99.90;;;;;;4973820;28;20042;-86
2023/03/13 04:15:52;;;;;;;12.15;5.15;;;9.10;99.90;;;;;;4972825;28;20092;-85
2023/03/13 04:18:18;;;;;;;8.32;4.57;;;9.20;99.90;;;;;;4945015;28;20034;-86
2023/03/13 04:20:44;;;;;;;11.77;5.03;;;9.30;99.90;;;;;;4993770;28;20120;-85
2023/03/13 04:23:10;;;;;;;11.07;4.65;;;9.30;99.90;;;;;;4976087;28;20042;-85
2023/03/13 04:25:35;;;;;;;10.70;4.10;;;9.30;99.90;;;;;;4993880;28;20066;-85
2023/03/13 04:28:01;;;;;;;7.00;4.40;;;9.40;99.90;;;;;;4988236;28;20220;-85
2023/03/13 04:30:27;;;;;;;8.73;4.50;;;9.30;99.90;;;;;;4954143;28;20073;-85
2023/03/13 04:32:53;;;;;;;7.22;4.30;;;9.40;99.90;;;;;;4996688;28;20132;-85
2023/03/13 04:35:18;;;;;;;6.75;4.47;;;9.40;99.90;;;;;;4991813;28;20053;-84
2023/03/13 04:37:44;;;;;;;7.40;4.68;;;9.50;99.90;;;;;;4971013;28;20061;-84
2023/03/13 04:40:12;;;;;;;7.25;4.43;;;9.50;99.90;;;;;;4962466;28;20508;-84
2023/03/13 04:42:38;;;;;;;9.57;4.90;;;9.50;99.90;;;;;;4991517;28;20070;-83
2023/03/13 04:45:04;;;;;;;6.65;4.32;;;9.60;99.90;;;;;;4974374;28;20072;-84
2023/03/13 04:47:30;;;;;;;8.05;4.75;;;9.60;99.90;;;;;;4986330;28;20041;-84
2023/03/13 04:49:55;;;;;;;7.57;4.45;;;9.60;99.90;;;;;;4991878;28;20046;-84
2023/03/13 04:52:21;;;;;;;5.90;3.95;;;9.70;99.90;;;;;;4977460;28;20096;-84
2023/03/13 04:54:49;;;;;;;8.25;5.35;;;9.70;99.90;;;;;;4959876;28;20038;-84
2023/03/13 04:57:15;;;;;;;6.95;4.35;;;9.70;99.90;;;;;;5002968;28;20503;-83
2023/03/13 04:59:41;;;;;;;9.77;4.82;;;9.80;99.90;;;;;;4970018;28;21819;-84
2023/03/13 05:02:11;;;;;;;8.60;5.53;;;9.80;99.90;;;;;;4993291;28;20033;-83
2023/03/13 05:04:36;;;;;;;7.85;5.20;;;9.80;99.90;;;;;;4989228;28;20043;-82
2023/03/13 05:07:02;;;;;;;11.40;6.15;;;9.90;99.90;;;;;;4969545;28;20407;-82
2023/03/13 05:09:28;;;;;;;9.60;4.55;;;9.90;99.90;;;;;;4970449;28;20041;-83
2023/03/13 05:11:54;;;;;;;9.63;4.97;;;9.90;99.90;;;;;;4977203;28;20046;-83
2023/03/13 05:14:19;;;;;;;10.10;5.03;;;9.90;99.90;;;;;;4973978;28;20121;-83
2023/03/13 05:16:45;;;;;;;6.43;3.88;;;10.00;99.90;;;;;;4991295;28;20182;-83
2023/03/13 05:19:11;;;;;;;7.68;4.38;;;10.00;99.90;;;;;;4987158;28;20038;-83
2023/03/13 05:21:36;;;;;;;9.43;4.68;;;10.10;99.90;;;;;;4991799;28;20042;-83
2023/03/13 05:24:02;;;;;;;9.85;4.90;;;10.10;99.90;;;;;;4989151;28;20035;-83
2023/03/13 05:26:28;;;;;;;10.30;4.93;;;10.00;99.90;;;;;;4954234;28;20034;-84
2023/03/13 05:28:54;;;;;;;7.63;5.30;;;10.00;99.90;;;;;;4968136;28;20080;-83
2023/03/13 05:31:19;;;;;;;10.60;5.10;;;10.10;99.90;;;;;;4955955;28;20042;-83
2023/03/13 05:33:45;;;;;;;9.48;5.30;;;10.10;99.90;;;;;;4989337;28;20046;-83
2023/03/13 05:36:11;;;;;;;8.55;5.55;;;10.20;99.90;;;;;;4972930;28;20046;-83
2023/03/13 05:38:36;;;;;;;10.50;6.00;;;10.20;99.90;;;;;;4969348;28;20077;-83
2023/03/13 05:41:02;;;;;;;8.88;5.35;;;10.30;99.90;;;;;;4960376;28;20026;-82
2023/03/13 05:43:28;;;;;;;10.05;5.70;;;10.30;99.90;;;;;;4976127;28;20041;-83
2023/03/13 05:45:53;;;;;;;13.32;6.60;;;10.30;99.90;;;;;;4976562;28;20038;-83
2023/03/13 05:48:19;;;;;;;8.23;5.30;;;10.40;99.90;;;;;;4973517;28;20046;-83
2023/03/13 05:50:46;;;;;;;11.57;6.28;;;10.40;99.90;;;;;;4990713;28;20065;-82
2023/03/13 05:53:11;;;;;;;10.88;6.28;;;10.40;99.90;;;;;;4971296;28;20117;-83
2023/03/13 05:55:37;;;;;;;8.75;5.80;;;10.40;99.90;;;;;;4971850;28;20040;-83
2023/03/13 05:58:03;;;;;;;8.27;5.05;;;10.40;99.90;;;;;;4956036;28;20097;-82
2023/03/13 06:00:29;;;;;;;11.25;6.53;;;10.50;99.90;;;;;;4987165;28;20120;-82
2023/03/13 06:02:54;;;;;;;11.57;5.80;;;10.50;99.90;;;;;;4991668;28;20053;-82
2023/03/13 06:05:20;;;;;;;13.00;6.53;;;10.60;99.90;;;;;;4974787;28;20089;-82
2023/03/13 06:07:47;;;;;;;11.10;6.13;;;10.50;99.90;;;;;;4988356;28;20034;-82
2023/03/13 06:10:13;;;;;;;12.57;5.80;;;10.60;99.90;;;;;;4975233;28;20049;-82
2023/03/13 06:12:39;;;;;;;8.90;5.50;;;10.60;99.90;;;;;;4986637;28;20046;-82
2023/03/13 06:15:06;;;;;;;11.07;6.22;;;10.70;99.90;;;;;;4956864;28;20065;-82
2023/03/13 06:17:31;;;;;;;14.27;7.28;;;10.80;99.90;;;;;;4987496;28;20582;-82
2023/03/13 06:19:57;;;;;;;13.25;7.57;;;10.70;99.90;;;;;;4988853;28;20389;-82
2023/03/13 06:22:23;;;;;;;14.13;6.65;;;10.80;99.90;;;;;;4988390;28;20451;-82
2023/03/13 06:24:48;;;;;;;11.13;6.75;;;10.80;99.90;;;;;;4986828;28;20046;-81
2023/03/13 06:27:15;;;;;;;12.82;7.20;;;10.90;99.90;;;;;;4957657;28;20392;-81
2023/03/13 06:29:41;;;;;;;11.65;6.85;;;10.90;99.90;;;;;;4973963;28;20044;-81
2023/03/13 06:32:07;;;;;;;14.20;7.90;;;11.00;99.90;;;;;;4988140;28;20045;-81
2023/03/13 06:34:32;;;;;;;13.05;7.53;;;10.90;99.90;;;;;;4990425;28;20566;-82
2023/03/13 06:36:59;;;;;;;13.30;7.30;;;10.90;99.90;;;;;;4972624;28;20124;-82
2023/03/13 06:39:25;;;;;;;9.05;6.57;;;11.00;99.90;;;;;;4985795;28;20050;-81
2023/03/13 06:41:50;;;;;;;12.55;7.00;;;11.10;99.90;;;;;;4978742;28;20092;-81
2023/03/13 06:44:16;;;;;;;14.50;7.28;;;11.10;99.90;;;;;;4986520;28;20108;-81
2023/03/13 06:46:42;;;;;;;15.68;7.60;;;11.20;99.90;;;;;;4994188;28;20034;-81
2023/03/13 06:49:07;;;;;;;11.05;6.63;;;11.20;99.90;;;;;;4971299;28;20050;-81
2023/03/13 06:51:33;;;;;;;13.07;6.28;;;11.10;99.90;;;;;;4969306;28;20047;-81
2023/03/13 06:54:02;;;;;;;15.55;6.50;;;11.20;99.90;;;;;;5002075;28;20042;-81
2023/03/13 06:56:27;;;;;;;10.35;5.22;;;11.20;99.90;;;;;;4988627;28;20034;-81
2023/03/13 06:58:53;;;;;;;14.85;7.50;;;11.30;99.90;;;;;;4972876;28;20050;-80
2023/03/13 07:01:19;;;;;;;15.27;5.53;;;11.20;99.90;;;;;;4968576;28;20039;-81
2023/03/13 07:03:47;;;;;;;10.63;5.72;;;11.30;99.90;;;;;;4961446;28;20352;-81
2023/03/13 07:06:12;;;;;;;11.27;6.10;;;11.40;99.90;;;;;;4969386;28;20057;-81
2023/03/13 07:08:38;;;;;;;11.02;5.47;;;11.40;99.90;;;;;;4959677;28;20061;-81
2023/03/13 07:11:09;;;;;;;12.77;5.22;;;11.50;99.90;;;;;;4975054;28;20530;-81
2023/03/13 07:13:35;;;;;;;11.70;5.82;;;11.50;99.90;;;;;;4991287;28;20042;-81
2023/03/13 07:16:09;;;;;;;11.45;5.40;;;11.50;99.90;;;;;;4992437;28;20804;-81
2023/03/13 07:18:37;;;;;;;12.38;5.40;;;11.50;99.90;;;;;;4991495;28;20396;-81
2023/03/13 07:21:04;;;;;;;10.77;4.68;;;11.50;99.90;;;;;;4990951;28;20121;-81
2023/03/13 07:23:31;;;;;;;12.27;5.82;;;11.60;99.90;;;;;;4986534;28;20030;-81
2023/03/13 07:25:59;;;;;;;7.20;4.10;;;11.60;99.90;;;;;;4988350;28;20411;-81
2023/03/13 07:28:26;;;;;;;12.68;4.78;;;11.60;99.90;;;;;;4975633;28;20104;-81
2023/03/13 07:30:52;;;;;;;11.88;4.30;;;11.60;99.90;;;;;;4972487;28;20092;-81
2023/03/13 07:33:18;;;;;;;10.55;4.80;;;11.60;99.90;;;;;;4978839;28;20556;-81
2023/03/13 07:35:51;;;;;;;8.15;4.68;;;11.80;99.90;;;;;;4974449;28;20117;-81
2023/03/13 07:38:17;;;;;;;13.60;4.82;;;11.70;99.90;;;;;;4959559;28;20487;-81
2023/03/13 07:40:48;;;;;;;10.15;4.45;;;11.70;99.90;;;;;;4975141;28;20029;-81
2023/03/13 07:43:14;;;;;;;8.52;3.97;;;11.70;99.90;;;;;;4992888;28;20124;-81
2023/03/13 07:46:09;;;;;;;12.60;4.57;;;11.80;99.90;;;;;;4956470;28;20524;-81
2023/03/13 07:48:37;;;;;;;10.05;4.82;;;11.80;99.90;;;;;;4976120;28;20082;-81
2023/03/13 07:51:11;;;;;;;12.55;4.28;;;11.80;99.90;;;;;;4974962;28;20057;-81
2023/03/13 07:53:36;;;;;;;8.77;4.13;;;11.90;99.90;;;;;;4996763;28;20048;-81
2023/03/13 07:56:10;;;;;;;7.53;4.07;;;11.90;99.90;;;;;;4990222;28;20045;-81
2023/03/13 07:58:38;;;;;;;8.68;3.80;;;11.90;99.90;;;;;;5010420;28;20124;-81
2023/03/13 08:01:08;;;;;;;8.43;3.30;;;11.90;99.90;;;;;;4991876;28;20108;-81
2023/03/13 08:03:34;;;;;;;9.15;4.60;;;11.90;99.90;;;;;;4976080;28;20037;-81
2023/03/13 08:06:04;;;;;;;12.65;4.40;;;12.00;99.90;;;;;;4956134;28;20034;-82
2023/03/13 08:08:30;;;;;;;8.68;3.85;;;11.90;99.90;;;;;;4975911;28;20052;-81
2023/03/13 08:11:27;;;;;;;10.43;4.22;;;12.00;99.90;;;;;;4990843;28;20034;-79
2023/03/13 08:13:54;;;;;;;9.50;4.57;;;11.90;99.90;;;;;;5008445;28;20046;-85
2023/03/13 08:16:22;;;;;;;10.93;4.78;;;11.90;99.90;;;;;;4996166;28;20692;-79
2023/03/13 08:18:51;;;;;;;8.93;4.65;;;11.80;99.90;;;;;;4976390;28;20134;-82
2023/03/13 08:21:24;;;;;;;10.80;5.05;;;11.70;99.90;;;;;;4993303;28;20433;-83
2023/03/13 08:23:53;;;;;;;10.80;5.30;;;11.60;99.90;;;;;;4986057;28;20087;-82
2023/03/13 08:26:21;;;;;;;11.40;5.72;;;11.50;99.90;;;;;;4973824;28;20105;-82
2023/03/13 08:28:52;;;;;;;11.30;5.22;;;11.50;99.90;;;;;;5009791;28;20034;-82
2023/03/13 08:31:29;;;;;;;8.15;5.30;;;11.40;99.90;;;;;;4995046;28;20391;-82
2023/03/13 08:33:55;;;;;;;12.25;4.93;;;11.40;99.90;;;;;;5006731;28;20042;-83
2023/03/13 08:36:26;;;;;;;10.60;4.50;;;11.40;99.90;;;;;;4976721;28;20045;-82
2023/03/13 08:38:53;;;;;;;8.95;4.38;;;11.50;99.90;;;;;;4973486;28;20060;-82
2023/03/13 08:41:24;;;;;;;10.32;3.95;;;11.50;99.90;;;;;;4978800;28;20069;-86
2023/03/13 08:43:55;;;;;;;6.18;3.60;;;11.60;99.90;;;;;;4986433;28;20407;-82
2023/03/13 08:46:21;;;;;;;5.22;3.70;;;11.70;99.90;;;;;;4973736;28;20049;-82
2023/03/13 08:48:53;;;;;;;7.57;3.60;;;11.80;99.90;;;;;;4991910;28;20420;-82
2023/03/13 08:51:21;;;;;;;6.72;3.47;;;11.80;99.90;;;;;;4997836;28;20048;-82
2023/03/13 08:53:48;;;;;;;6.82;4.20;;;11.90;99.90;;;;;;4993412;28;20042;-82
2023/03/13 08:56:16;;;;;;;7.13;3.10;;;11.90;99.90;;;;;;5001048;28;20077;-83
2023/03/13 08:58:43;;;;;;;7.75;3.30;;;11.90;99.90;;;;;;4990599;28;20043;-82
2023/03/13 09:01:11;;;;;;;8.70;3.13;;;12.00;99.90;;;;;;4989939;28;20042;-82
2023/03/13 09:03:37;;;;;;;7.53;2.92;;;12.00;99.90;;;;;;4996714;28;20031;-82
2023/03/13 09:06:03;;;;;;;4.60;2.80;;;12.10;99.90;;;;;;4989717;28;20511;-82
2023/03/13 09:08:30;;;;;;;3.78;2.60;;;12.10;99.90;;;;;;4998536;28;20034;-83
2023/03/13 09:11:01;;;;;;;6.90;2.70;;;12.30;99.90;;;;;;4991628;28;20042;-82
2023/03/13 09:13:28;;;;;;;2.38;1.90;;;12.40;99.90;;;;;;4990350;28;20435;-83
2023/03/13 09:15:59;;;;;;;4.30;2.25;;;12.70;99.90;;;;;;4989407;28;20096;-83
2023/03/13 09:18:26;;;;;;;6.88;2.65;;;13.60;99.90;;;;;;4989983;28;20404;-83
2023/03/13 09:20:52;;;;;;;7.18;2.25;;;13.80;99.90;;;;;;4989150;28;20046;-83
2023/03/13 09:23:18;;;;;;;4.32;2.38;;;13.70;99.90;;;;;;4992000;28;20555;-83
2023/03/13 09:25:44;;;;;;;5.30;2.28;;;13.40;99.90;;;;;;4989434;28;20042;-83
2023/03/13 09:28:10;;;;;;;4.97;2.17;;;13.30;99.90;;;;;;4989894;28;20042;-83
2023/03/13 09:30:36;;;;;;;4.78;2.38;;;13.20;99.90;;;;;;4989205;28;20046;-82
2023/03/13 09:33:02;;;;;;;7.03;2.30;;;13.10;99.90;;;;;;4971880;28;20030;-82
2023/03/13 09:35:27;;;;;;;8.32;1.98;;;13.00;99.90;;;;;;4989289;28;20128;-83
2023/03/13 09:37:53;;;;;;;5.10;2.15;;;12.90;99.90;;;;;;4972961;28;20042;-83
2023/03/13 09:40:21;;;;;;;6.97;2.10;;;12.90;99.90;;;;;;4972699;28;20533;-83
2023/03/13 09:42:51;;;;;;;4.55;2.45;;;12.90;99.90;;;;;;4989681;28;20082;-83
2023/03/13 09:45:48;;;;;;;2.50;1.80;;;12.90;99.90;;;;;;4988932;28;20042;-83
2023/03/13 09:48:19;;;;;;;12.65;2.58;;;12.70;99.90;;;;;;5007094;28;20054;-83
2023/03/13 09:51:12;;;;;;;4.25;2.25;;;12.70;99.90;;;;;;4995016;28;20050;-82
2023/03/13 09:53:48;;;;;;;6.10;1.80;;;12.80;99.90;;;;;;4986710;28;20656;-82
2023/03/13 09:56:30;;;;;;;4.65;2.00;;;12.80;99.90;;;;;;5003642;28;20034;-82
2023/03/13 09:59:10;;;;;;;6.10;1.75;;;12.90;99.90;;;;;;4989427;28;20042;-82
2023/03/13 10:01:39;;;;;;;5.88;2.60;;;12.90;99.90;;;;;;4989033;28;20042;-82
2023/03/13 10:04:27;;;;;;;2.83;2.03;;;12.90;99.90;;;;;;4989454;28;20065;-82
2023/03/13 10:06:53;;;;;;;5.65;2.08;;;12.80;99.90;;;;;;4989718;28;20043;-82
2023/03/13 10:09:29;;;;;;;3.90;2.17;;;12.90;99.90;;;;;;4982113;28;20490;-82
2023/03/13 10:12:21;;;;;;;4.60;2.58;;;12.90;99.90;;;;;;4988541;28;20076;-83
2023/03/13 10:15:02;;;;;;;3.00;1.53;;;12.90;99.90;;;;;;4971646;28;20064;-83
2023/03/13 10:17:32;;;;;;;4.07;1.80;;;12.90;99.90;;;;;;4988533;28;20150;-82
2023/03/13 10:20:24;;;;;;;5.18;2.00;;;13.00;99.90;;;;;;4988926;28;20053;-82
2023/03/13 10:22:57;;;;;;;3.42;2.17;;;13.20;99.90;;;;;;4991387;28;20042;-82
2023/03/13 10:25:33;;;;;;;8.32;2.30;;;13.30;99.90;;;;;;4986268;28;20447;-82
2023/03/13 10:28:00;;;;;;;6.65;2.40;;;13.30;99.90;;;;;;4973212;28;20061;-83
2023/03/13 10:30:35;;;;;;;8.25;2.30;;;13.20;99.90;;;;;;4988453;28;20039;-82
2023/03/13 10:33:06;;;;;;;6.95;2.45;;;13.60;99.90;;;;;;4986337;28;20081;-83
2023/03/13 10:35:36;;;;;;;5.37;2.07;;;13.70;99.90;;;;;;4989472;28;20447;-82
2023/03/13 10:38:16;;;;;;;6.55;2.13;;;13.70;99.90;;;;;;4988935;28;21255;-82
2023/03/13 10:40:42;;;;;;;5.00;2.00;;;13.70;99.90;;;;;;4971226;28;20411;-82
2023/03/13 10:43:19;;;;;;;7.63;2.47;;;13.60;99.90;;;;;;4972908;28;20039;-82
2023/03/13 10:45:45;;;;;;;4.88;1.90;;;13.60;99.90;;;;;;4992128;28;20026;-82
2023/03/13 10:48:14;;;;;;;6.63;2.50;;;13.70;99.90;;;;;;4995962;28;20030;-82
2023/03/13 10:50:46;;;;;;;6.60;2.38;;;13.80;99.90;;;;;;5000695;28;20506;-82
2023/03/13 10:53:31;;;;;;;9.93;2.40;;;13.70;99.90;;;;;;5009535;28;20120;-82
2023/03/13 10:56:38;;;;;;;11.50;2.45;;;13.80;99.90;;;;;;4996997;28;20035;-82
2023/03/13 10:59:21;;;;;;;5.90;2.60;;;13.80;99.90;;;;;;4988998;28;20123;-82
2023/03/13 11:01:47;;;;;;;3.97;2.53;;;13.70;99.90;;;;;;4991913;28;20050;-82
2023/03/13 11:04:25;;;;;;;6.38;2.47;;;13.70;99.90;;;;;;4975884;28;20038;-82
2023/03/13 11:06:52;;;;;;;7.88;2.75;;;13.90;99.90;;;;;;4992703;28;20034;-82
2023/03/13 11:09:19;;;;;;;6.75;2.42;;;13.90;99.90;;;;;;4976703;28;21335;-82
2023/03/13 11:11:50;;;;;;;6.05;2.22;;;14.00;99.90;;;;;;4976504;28;20034;-82
2023/03/13 11:14:25;;;;;;;8.05;2.72;;;14.00;99.90;;;;;;4991706;28;20038;-82
2023/03/13 11:17:01;;;;;;;6.97;2.28;;;14.40;99.90;;;;;;4993894;28;20042;-82
2023/03/13 11:19:48;;;;;;;4.90;1.85;;;14.80;99.90;;;;;;4992326;28;20049;-82
2023/03/13 11:22:18;;;;;;;4.90;1.98;;;15.10;99.90;;;;;;4990343;28;20038;-82
2023/03/13 11:25:02;;;;;;;5.10;1.70;;;15.20;99.90;;;;;;4991935;28;20046;-82
2023/03/13 11:27:49;;;;;;;5.65;1.80;;;15.10;99.90;;;;;;4991521;28;20435;-82
2023/03/13 11:30:57;;;;;;;7.03;2.05;;;15.70;99.90;;;;;;4991535;28;20041;-82
2023/03/13 11:33:58;;;;;;;2.88;1.65;;;15.90;99.90;;;;;;4990542;28;20034;-82
2023/03/13 11:36:40;;;;;;;3.17;1.70;;;16.20;99.90;;;;;;4992414;28;20039;-82
2023/03/13 11:39:43;;;;;;;2.72;1.75;;;16.00;99.90;;;;;;4990471;28;20385;-82
2023/03/13 11:42:09;;;;;;;;;;;15.60;99.90;;;;;;4992211;28;20042;-82
2023/03/13 11:44:55;;;;;;;5.38;1.80;;;15.50;99.90;;;;;;4990810;28;19973;-82
2023/03/13 11:47:34;;;;;;;1.50;1.05;;;15.40;99.90;;;;;;4976284;28;20034;-82
2023/03/13 11:50:25;;;;;;;4.15;1.40;;;15.60;99.90;;;;;;5018104;28;20050;-82
2023/03/13 11:53:09;;;;;;;4.57;1.88;;;15.60;99.90;;;;;;5014205;28;20062;-82
2023/03/13 11:55:53;;;;;;;7.80;1.73;;;15.90;99.90;;;;;;5002578;28;20057;-82
2023/03/13 11:58:34;;;;;;;3.30;1.70;;;15.80;99.90;;;;;;4992238;28;20050;-82
2023/03/13 12:01:09;;;;;;;1.90;1.30;;;16.10;99.90;;;;;;4990404;28;20050;-82
2023/03/13 12:03:38;;;;;;;4.53;1.77;;;16.30;99.90;;;;;;4990833;28;20045;-82
2023/03/13 12:06:11;;;;;;;6.13;2.03;;;16.30;99.90;;;;;;4991882;28;20038;-82
2023/03/13 12:08:45;;;;;;;2.88;1.75;;;16.30;99.90;;;;;;4991635;28;20042;-82
2023/03/13 12:11:26;;;;;;;3.13;1.77;;;16.30;99.90;;;;;;4990382;28;20104;-82
2023/03/13 12:14:33;;;;;;;2.83;1.48;;;16.50;99.90;;;;;;4990517;28;20117;-82
2023/03/13 12:17:09;;;;;;;3.38;1.40;;;16.60;99.90;;;;;;4987558;28;20081;-82
2023/03/13 12:19:46;;;;;;;5.25;1.70;;;16.40;99.90;;;;;;4990247;28;20507;-83
2023/03/13 12:22:35;;;;;;;7.35;2.13;;;16.30;99.90;;;;;;4998002;28;20080;-82
2023/03/13 12:25:09;;;;;;;4.78;1.80;;;16.40;99.90;;;;;;4989495;28;20088;-82
2023/03/13 12:27:45;;;;;;;5.82;1.88;;;16.50;99.90;;;;;;4990574;28;20373;-82
2023/03/13 12:30:32;;;;;;;4.60;1.90;;;16.80;99.90;;;;;;4990992;28;20041;-82
2023/03/13 12:33:16;;;;;;;6.32;2.10;;;16.50;99.90;;;;;;4990368;28;20039;-82
2023/03/13 12:35:46;;;;;;;6.47;1.98;;;16.40;99.90;;;;;;5005035;28;20042;-82
2023/03/13 12:38:27;;;;;;;4.38;1.63;;;16.20;99.90;;;;;;4991091;28;20050;-82
2023/03/13 12:41:18;;;;;;;5.90;2.05;;;16.10;99.90;;;;;;4989907;28;20069;-83
2023/03/13 12:43:49;;;;;;;4.20;1.80;;;16.30;99.90;;;;;;4988721;28;20046;-83
2023/03/13 12:46:42;;;;;;;3.50;1.50;;;16.50;99.90;;;;;;4990892;28;20466;-82
2023/03/13 12:49:14;;;;;;;8.27;1.90;;;16.80;99.90;;;;;;4989065;28;20117;-83
2023/03/13 12:52:11;;;;;;;6.83;1.77;;;16.70;99.90;;;;;;4994460;28;20044;-82
2023/03/13 12:54:46;;;;;;;6.20;1.98;;;16.60;99.90;;;;;;4989927;28;20065;-82
2023/03/13 12:57:33;;;;;;;2.28;1.60;;;16.60;99.90;;;;;;4973141;28;20042;-83
2023/03/13 13:00:04;;;;;;;3.85;1.60;;;16.70;99.90;;;;;;4988162;28;20045;-83
2023/03/13 13:02:31;;;;;;;7.72;1.77;;;16.90;99.90;;;;;;4990202;28;20042;-82